Time;durP1;ratioP1;P1;durP2;ratioP2;P2;SDS_P1;SDS_P2;PMS_P1;PMS_P2;Temp;Humidity;BMP_temperature;BMP_pressure;BME280_temperature;BME280_humidity;BME280_pressure;Samples;Min_cycle;Max_cycle;Signal;HPM_P1;HPM_P2
2022/04/05 00:00:05;;;;;;;;;;;;;;;19.12;43.18;99969.53;2081059;28;19924;-46
2022/04/05 00:01:05;;;;;;;;;;;;;;;19.11;43.03;99974.13;2080481;28;19926;-47
2022/04/05 00:02:06;;;;;;;;;;;;;;;19.11;43.10;99974.13;2098923;28;19974;-46
2022/04/05 00:03:06;;;;;;;;;;;;;;;19.10;43.15;99968.81;2101125;28;19919;-47
2022/04/05 00:04:06;;;;;;;;;;;;;;;19.10;43.14;99971.53;2079629;28;19920;-47
2022/04/05 00:05:07;;;;;;;;;;;;;;;19.09;43.16;99975.31;2080253;28;20289;-45
2022/04/05 00:06:07;;;;;;;;;;;;;;;19.08;43.16;99973.56;2082282;28;19930;-46
2022/04/05 00:07:07;;;;;;;;;;;;;;;19.05;43.20;99970.13;2082867;28;20624;-46
2022/04/05 00:08:08;;;;;;;;;;;;;;;19.05;43.17;99969.25;2080642;28;19920;-47
2022/04/05 00:09:08;;;;;;;;;;;;;;;19.06;43.36;99971.00;2080299;28;20508;-46
2022/04/05 00:10:08;;;;;;;;;;;;;;;19.04;43.28;99970.28;2082954;28;20747;-47
2022/04/05 00:11:09;;;;;;;;;;;;;;;19.03;43.34;99960.34;2082006;28;20392;-47
2022/04/05 00:12:09;;;;;;;;;;;;;;;19.01;43.33;99963.25;2083278;28;20222;-47
2022/04/05 00:13:10;;;;;;;;;;;;;;;19.02;43.29;99967.69;2082261;28;20007;-47
2022/04/05 00:14:10;;;;;;;;;;;;;;;19.02;43.37;99958.66;2082325;28;20539;-48
2022/04/05 00:15:10;;;;;;;;;;;;;;;19.02;43.35;99962.22;2082684;28;19920;-47
2022/04/05 00:16:10;;;;;;;;;;;;;;;19.01;43.34;99962.38;2080700;28;20858;-47
2022/04/05 00:17:11;;;;;;;;;;;;;;;18.99;43.33;99969.88;2080296;28;20078;-48
2022/04/05 00:18:12;;;;;;;;;;;;;;;18.99;43.28;99964.44;2077005;28;20437;-49
2022/04/05 00:19:12;;;;;;;;;;;;;;;18.98;43.32;99963.53;2078208;28;20235;-47
2022/04/05 00:20:13;;;;;;;;;;;;;;;18.98;43.37;99959.97;2083099;28;19931;-47
2022/04/05 00:21:13;;;;;;;;;;;;;;;18.98;43.30;99963.53;2080060;28;20024;-45
2022/04/05 00:22:13;;;;;;;;;;;;;;;18.97;43.36;99961.84;2078785;28;20168;-44
2022/04/05 00:23:15;;;;;;;;;;;;;;;18.96;43.46;99965.59;2083398;28;19959;-46
2022/04/05 00:24:16;;;;;;;;;;;;;;;18.98;43.49;99959.97;2079616;28;19921;-44
2022/04/05 00:25:16;;;;;;;;;;;;;;;18.98;43.42;99962.69;2083234;28;20573;-44
2022/04/05 00:26:17;;;;;;;;;;;;;;;18.96;43.47;99956.50;2078241;28;20338;-45
2022/04/05 00:27:17;;;;;;;;;;;;;;;18.95;43.46;99952.94;2081419;28;20359;-46
2022/04/05 00:28:17;;;;;;;;;;;;;;;18.96;43.41;99951.94;2083672;28;19920;-46
2022/04/05 00:29:19;;;;;;;;;;;;;;;18.95;43.41;99955.66;2079598;28;19920;-46
2022/04/05 00:30:19;;;;;;;;;;;;;;;18.96;43.35;99959.25;2081439;28;19924;-50
2022/04/05 00:31:19;;;;;;;;;;;;;;;18.94;43.43;99961.28;2083828;28;19978;-46
2022/04/05 00:32:20;;;;;;;;;;;;;;;18.93;43.48;99956.81;2081091;28;20460;-46
2022/04/05 00:33:20;;;;;;;;;;;;;;;18.93;43.50;99954.94;2084080;28;19920;-45
2022/04/05 00:34:25;;;;;;;;;;;;;;;18.92;43.56;99952.38;2082429;28;20354;-48
2022/04/05 00:35:25;;;;;;;;;;;;;;;18.90;43.53;99949.78;2079871;28;19913;-48
2022/04/05 00:36:25;;;;;;;;;;;;;;;18.91;43.57;99958.84;2081490;28;20026;-46
2022/04/05 00:37:26;;;;;;;;;;;;;;;18.90;43.60;99960.72;2079942;28;19966;-47
2022/04/05 00:38:26;;;;;;;;;;;;;;;18.89;43.55;99952.66;2081469;28;19927;-46
2022/04/05 00:39:29;;;;;;;;;;;;;;;18.88;43.54;99959.16;2083166;28;19920;-47
2022/04/05 00:40:30;;;;;;;;;;;;;;;18.89;43.67;99963.59;2079606;28;19921;-46
2022/04/05 00:41:30;;;;;;;;;;;;;;;18.87;43.61;99954.72;2096103;28;20278;-46
2022/04/05 00:42:32;;;;;;;;;;;;;;;18.88;43.65;99961.88;2091638;28;19970;-48
2022/04/05 00:43:32;;;;;;;;;;;;;;;18.84;43.58;99954.00;2080670;28;19927;-48
2022/04/05 00:44:33;;;;;;;;;;;;;;;18.84;43.59;99956.75;2083439;28;20150;-46
2022/04/05 00:45:33;;;;;;;;;;;;;;;18.83;43.79;99954.16;2081949;28;19927;-47
2022/04/05 00:46:34;;;;;;;;;;;;;;;18.84;43.69;99959.47;2080909;28;19920;-45
2022/04/05 00:47:35;;;;;;;;;;;;;;;18.82;43.67;99953.28;2081483;28;20492;-45
2022/04/05 00:48:49;;;;;;;;;;;;;;;18.85;43.57;99960.31;2078992;28;20134;-46
2022/04/05 00:49:51;;;;;;;;;;;;;;;18.83;43.76;99959.59;2077907;28;20243;-45
2022/04/05 00:50:52;;;;;;;;;;;;;;;18.82;43.87;99947.84;2079724;28;20054;-46
2022/04/05 00:51:52;;;;;;;;;;;;;;;18.83;43.80;99949.53;2080002;28;19990;-45
2022/04/05 00:52:52;;;;;;;;;;;;;;;18.82;43.71;99950.56;2081820;28;19934;-45
2022/04/05 00:53:54;;;;;;;;;;;;;;;18.83;43.83;99952.28;2080599;28;20230;-45
2022/04/05 00:54:56;;;;;;;;;;;;;;;18.82;43.70;99953.28;2082064;28;20303;-47
2022/04/05 00:55:57;;;;;;;;;;;;;;;18.82;43.85;99953.28;2082012;28;20359;-49
2022/04/05 00:56:58;;;;;;;;;;;;;;;18.82;43.77;99953.28;2082199;28;20369;-47
2022/04/05 00:58:01;;;;;;;;;;;;;;;18.82;43.75;99946.97;2084527;28;19916;-47
2022/04/05 00:59:02;;;;;;;;;;;;;;;18.81;43.84;99948.84;2082688;28;20017;-48
2022/04/05 01:00:04;;;;;;;;;;;;;;;18.82;43.87;99942.38;2082105;28;20145;-48
2022/04/05 01:01:05;;;;;;;;;;;;;;;18.80;43.78;99944.38;2082409;28;20015;-44
2022/04/05 01:02:05;;;;;;;;;;;;;;;18.82;43.79;99952.44;2082252;28;19916;-44
2022/04/05 01:03:06;;;;;;;;;;;;;;;18.81;43.72;99951.59;2079348;28;19927;-46
2022/04/05 01:04:07;;;;;;;;;;;;;;;18.80;43.79;99949.84;2083906;28;20131;-45
2022/04/05 01:05:07;;;;;;;;;;;;;;;18.79;43.88;99950.88;2081568;28;19921;-49
2022/04/05 01:06:08;;;;;;;;;;;;;;;18.79;43.82;99945.41;2084868;28;19946;-46
2022/04/05 01:07:10;;;;;;;;;;;;;;;18.78;43.83;99946.41;2079769;28;19984;-46
2022/04/05 01:08:12;;;;;;;;;;;;;;;18.77;44.00;99950.16;2080388;28;20774;-46
2022/04/05 01:09:12;;;;;;;;;;;;;;;18.76;43.81;99942.97;2078997;28;19924;-45
2022/04/05 01:10:13;;;;;;;;;;;;;;;18.75;43.90;99941.22;2080837;28;20224;-46
2022/04/05 01:11:13;;;;;;;;;;;;;;;18.75;44.03;99945.84;2081742;28;19934;-45
2022/04/05 01:12:13;;;;;;;;;;;;;;;18.76;44.04;99942.09;2082639;28;19948;-45
2022/04/05 01:13:15;;;;;;;;;;;;;;;18.72;44.00;99936.06;2083670;28;19916;-45
2022/04/05 01:14:15;;;;;;;;;;;;;;;18.73;43.94;99940.50;2082168;28;19971;-47
2022/04/05 01:15:15;;;;;;;;;;;;;;;18.72;43.94;99936.06;2084345;28;20050;-46
2022/04/05 01:16:18;;;;;;;;;;;;;;;18.72;44.00;99932.50;2083265;28;19920;-47
2022/04/05 01:17:19;;;;;;;;;;;;;;;18.72;44.04;99935.22;2077706;28;19952;-49
2022/04/05 01:18:20;;;;;;;;;;;;;;;18.70;44.10;99929.91;2078244;28;20309;-47
2022/04/05 01:19:20;;;;;;;;;;;;;;;18.70;44.12;99932.63;2076789;28;19996;-47
2022/04/05 01:20:20;;;;;;;;;;;;;;;18.69;44.11;99925.47;2082362;28;19921;-47
2022/04/05 01:21:21;;;;;;;;;;;;;;;18.70;44.23;99927.16;2080957;28;19928;-48
2022/04/05 01:22:21;;;;;;;;;;;;;;;18.69;44.19;99922.72;2082279;28;19920;-47
2022/04/05 01:23:22;;;;;;;;;;;;;;;18.68;44.27;99922.88;2078958;28;19921;-46
2022/04/05 01:24:22;;;;;;;;;;;;;;;18.70;44.24;99932.63;2083393;28;20255;-46
2022/04/05 01:25:22;;;;;;;;;;;;;;;18.71;44.06;99917.94;2084074;28;20415;-47
2022/04/05 01:26:23;;;;;;;;;;;;;;;18.71;44.01;99917.94;2079564;28;19928;-46
2022/04/05 01:27:27;;;;;;;;;;;;;;;18.73;44.13;99917.81;2082730;28;19999;-47
2022/04/05 01:28:27;;;;;;;;;;;;;;;18.73;44.00;99913.19;2079086;28;19921;-48
2022/04/05 01:29:28;;;;;;;;;;;;;;;18.74;44.01;99917.66;2084285;28;19924;-45
2022/04/05 01:30:28;;;;;;;;;;;;;;;18.76;43.93;99912.91;2081306;28;20787;-46
2022/04/05 01:31:29;;;;;;;;;;;;;;;18.76;44.05;99912.91;2081207;28;20270;-47
2022/04/05 01:32:29;;;;;;;;;;;;;;;18.77;44.10;99911.94;2083524;28;19912;-46
2022/04/05 01:33:29;;;;;;;;;;;;;;;18.76;43.94;99915.66;2085563;28;20398;-46
2022/04/05 01:34:31;;;;;;;;;;;;;;;18.75;44.00;99919.38;2081870;28;19927;-46
2022/04/05 01:35:31;;;;;;;;;;;;;;;18.75;43.87;99918.53;2080786;28;20229;-47
2022/04/05 01:36:32;;;;;;;;;;;;;;;18.73;44.00;99915.94;2081884;28;19932;-46
2022/04/05 01:37:33;;;;;;;;;;;;;;;18.75;43.88;99913.91;2081608;28;20204;-46
2022/04/05 01:38:34;;;;;;;;;;;;;;;18.73;43.89;99913.19;2082980;28;20193;-47
2022/04/05 01:39:35;;;;;;;;;;;;;;;18.74;43.96;99914.94;2080923;28;20189;-47
2022/04/05 01:40:36;;;;;;;;;;;;;;;18.73;43.90;99915.94;2080969;28;20035;-46
2022/04/05 01:41:36;;;;;;;;;;;;;;;18.73;44.11;99915.94;2079176;28;19917;-46
2022/04/05 01:42:37;;;;;;;;;;;;;;;18.73;44.05;99915.09;2082499;28;20295;-48
2022/04/05 01:43:40;;;;;;;;;;;;;;;18.71;43.86;99917.09;2081445;28;20260;-46
2022/04/05 01:44:41;;;;;;;;;;;;;;;18.72;43.95;99913.38;2083283;28;19966;-45
2022/04/05 01:45:42;;;;;;;;;;;;;;;18.70;44.06;99910.78;2081427;28;20003;-48
2022/04/05 01:46:43;;;;;;;;;;;;;;;18.70;44.02;99916.25;2080672;28;20552;-45
2022/04/05 01:47:43;;;;;;;;;;;;;;;18.70;43.91;99916.25;2081119;28;19928;-46
2022/04/05 01:48:44;;;;;;;;;;;;;;;18.70;44.05;99913.50;2081892;28;19955;-46
2022/04/05 01:49:45;;;;;;;;;;;;;;;18.69;44.06;99911.81;2101480;28;20547;-47
2022/04/05 01:50:46;;;;;;;;;;;;;;;18.69;44.02;99909.06;2101002;27;20679;-45
2022/04/05 01:51:46;;;;;;;;;;;;;;;18.69;44.13;99914.53;2084959;28;19924;-46
2022/04/05 01:52:47;;;;;;;;;;;;;;;18.70;43.97;99908.06;2079529;28;19932;-46
2022/04/05 01:53:47;;;;;;;;;;;;;;;18.68;43.91;99910.06;2081957;28;19954;-45
2022/04/05 01:54:47;;;;;;;;;;;;;;;18.68;43.83;99907.34;2082579;28;19967;-45
2022/04/05 01:55:48;;;;;;;;;;;;;;;18.69;43.95;99908.19;2079746;28;20383;-49
2022/04/05 01:56:49;;;;;;;;;;;;;;;18.69;43.92;99905.47;2081416;28;20200;-45
2022/04/05 01:57:50;;;;;;;;;;;;;;;18.67;44.02;99905.63;2085929;28;19920;-45
2022/04/05 01:58:50;;;;;;;;;;;;;;;18.69;43.97;99909.06;2086789;28;19931;-47
2022/04/05 01:59:51;;;;;;;;;;;;;;;18.68;43.89;99907.34;2079552;28;19920;-46
2022/04/05 02:00:51;;;;;;;;;;;;;;;18.68;43.87;99907.34;2080118;28;19948;-45
2022/04/05 02:01:52;;;;;;;;;;;;;;;18.68;44.02;99907.34;2081733;28;19960;-46
2022/04/05 02:02:53;;;;;;;;;;;;;;;18.68;44.06;99906.50;2081742;28;20019;-45
2022/04/05 02:03:53;;;;;;;;;;;;;;;18.67;44.01;99905.63;2083650;28;20029;-47
2022/04/05 02:04:53;;;;;;;;;;;;;;;18.65;44.05;99902.19;2082628;28;19920;-46
2022/04/05 02:05:54;;;;;;;;;;;;;;;18.65;43.92;99902.19;2082687;28;19920;-46
2022/04/05 02:06:54;;;;;;;;;;;;;;;18.63;44.04;99904.22;2086126;28;20705;-46
2022/04/05 02:07:54;;;;;;;;;;;;;;;18.62;44.19;99902.50;2080250;28;19921;-45
2022/04/05 02:08:55;;;;;;;;;;;;;;;18.61;43.91;99901.63;2084079;28;20240;-46
2022/04/05 02:09:55;;;;;;;;;;;;;;;18.63;43.93;99909.66;2084048;28;19943;-46
2022/04/05 02:10:55;;;;;;;;;;;;;;;18.60;44.03;99904.53;2085142;28;19920;-47
2022/04/05 02:11:56;;;;;;;;;;;;;;;18.61;44.03;99911.69;2083906;28;19963;-46
2022/04/05 02:12:56;;;;;;;;;;;;;;;18.59;44.05;99902.78;2082855;28;20436;-47
2022/04/05 02:13:56;;;;;;;;;;;;;;;18.58;44.02;99906.53;2084475;28;19971;-47
2022/04/05 02:14:57;;;;;;;;;;;;;;;18.58;44.13;99901.94;2084762;28;19924;-48
2022/04/05 02:16:00;;;;;;;;;;;;;;;18.58;44.09;99901.06;2081377;28;20448;-46
2022/04/05 02:17:00;;;;;;;;;;;;;;;18.57;44.24;99899.34;2083367;28;20025;-46
2022/04/05 02:18:01;;;;;;;;;;;;;;;18.57;44.19;99902.06;2080522;28;20220;-46
2022/04/05 02:19:01;;;;;;;;;;;;;;;18.57;44.22;99893.88;2084199;28;19947;-46
2022/04/05 02:20:02;;;;;;;;;;;;;;;18.56;44.29;99889.44;2083119;28;20570;-46
2022/04/05 02:21:03;;;;;;;;;;;;;;;18.56;44.16;99892.19;2085189;28;20791;-46
2022/04/05 02:22:04;;;;;;;;;;;;;;;18.54;44.17;99894.19;2082061;28;19921;-47
2022/04/05 02:23:05;;;;;;;;;;;;;;;18.54;44.32;99891.47;2085765;28;19920;-46
2022/04/05 02:24:05;;;;;;;;;;;;;;;18.55;44.16;99895.94;2079650;28;20907;-46
2022/04/05 02:25:06;;;;;;;;;;;;;;;18.53;44.34;99887.03;2081529;28;20521;-50
2022/04/05 02:26:06;;;;;;;;;;;;;;;18.55;44.24;99895.94;2083403;28;20334;-47
2022/04/05 02:27:07;;;;;;;;;;;;;;;18.55;44.25;99899.50;2084669;28;19963;-46
2022/04/05 02:28:08;;;;;;;;;;;;;;;18.54;44.45;99895.03;2083432;28;19916;-47
2022/04/05 02:29:08;;;;;;;;;;;;;;;18.55;44.44;99890.47;2082096;28;19920;-47
2022/04/05 02:30:10;;;;;;;;;;;;;;;18.54;44.40;99894.19;2084195;28;19942;-47
2022/04/05 02:31:11;;;;;;;;;;;;;;;18.53;44.37;99893.34;2082426;28;20380;-47
2022/04/05 02:32:11;;;;;;;;;;;;;;;18.55;44.48;99895.94;2080898;28;19925;-47
2022/04/05 02:33:11;;;;;;;;;;;;;;;18.54;44.43;99902.38;2083310;28;19942;-49
2022/04/05 02:34:12;;;;;;;;;;;;;;;18.54;44.41;99896.91;2078005;28;19924;-46
2022/04/05 02:35:12;;;;;;;;;;;;;;;18.54;44.30;99896.91;2085335;28;19974;-46
2022/04/05 02:36:12;;;;;;;;;;;;;;;18.52;44.28;99901.66;2083132;28;20374;-46
2022/04/05 02:37:13;;;;;;;;;;;;;;;18.52;44.46;99896.22;2078940;28;19973;-48
2022/04/05 02:38:13;;;;;;;;;;;;;;;18.51;44.40;99898.09;2081676;28;20417;-46
2022/04/05 02:39:13;;;;;;;;;;;;;;;18.50;44.57;99895.53;2085898;28;20306;-46
2022/04/05 02:40:14;;;;;;;;;;;;;;;18.48;44.44;99894.81;2081844;28;20304;-47
2022/04/05 02:41:14;;;;;;;;;;;;;;;18.48;44.45;99894.81;2082470;28;19924;-46
2022/04/05 02:42:14;;;;;;;;;;;;;;;18.48;44.30;99892.09;2083684;28;19958;-47
2022/04/05 02:43:15;;;;;;;;;;;;;;;18.47;44.48;99898.53;2078976;28;19921;-45
2022/04/05 02:44:15;;;;;;;;;;;;;;;18.47;44.45;99898.53;2083536;28;19916;-47
2022/04/05 02:45:15;;;;;;;;;;;;;;;18.46;44.34;99894.94;2082870;28;20301;-47
2022/04/05 02:46:15;;;;;;;;;;;;;;;18.45;44.36;99895.97;2082070;28;20616;-46
2022/04/05 02:47:16;;;;;;;;;;;;;;;18.43;44.52;99890.66;2085898;28;19950;-46
2022/04/05 02:48:16;;;;;;;;;;;;;;;18.43;44.58;99887.91;2080839;28;20373;-46
2022/04/05 02:49:17;;;;;;;;;;;;;;;18.43;44.41;99893.38;2086254;28;20026;-46
2022/04/05 02:50:18;;;;;;;;;;;;;;;18.42;44.54;99888.94;2080214;28;19924;-46
2022/04/05 02:51:18;;;;;;;;;;;;;;;18.43;44.61;99887.91;2083049;28;19921;-47
2022/04/05 02:52:19;;;;;;;;;;;;;;;18.42;44.65;99888.06;2078151;28;20185;-46
2022/04/05 02:53:19;;;;;;;;;;;;;;;18.43;44.55;99887.06;2080627;28;20015;-46
2022/04/05 02:54:20;;;;;;;;;;;;;;;18.41;44.52;99879.03;2084296;28;19934;-46
2022/04/05 02:55:21;;;;;;;;;;;;;;;18.42;44.48;99880.75;2084840;28;20513;-46
2022/04/05 02:56:21;;;;;;;;;;;;;;;18.43;44.46;99885.19;2082968;28;20490;-48
2022/04/05 02:57:21;;;;;;;;;;;;;;;18.43;44.42;99877.00;2078032;28;20271;-46
2022/04/05 02:58:21;;;;;;;;;;;;;;;18.44;44.52;99877.84;2078989;28;19924;-46
2022/04/05 02:59:22;;;;;;;;;;;;;;;18.43;44.40;99879.72;2084746;28;20019;-47
2022/04/05 03:00:22;;;;;;;;;;;;;;;18.46;44.30;99880.44;2083080;28;19953;-47
2022/04/05 03:01:23;;;;;;;;;;;;;;;18.46;44.42;99872.25;2085425;28;19920;-46
2022/04/05 03:02:23;;;;;;;;;;;;;;;18.47;44.49;99871.25;2083513;28;19921;-45
2022/04/05 03:03:23;;;;;;;;;;;;;;;18.46;44.39;99869.53;2079761;28;19920;-45
2022/04/05 03:04:24;;;;;;;;;;;;;;;18.47;44.47;99876.69;2078412;28;19947;-46
2022/04/05 03:05:24;;;;;;;;;;;;;;;18.48;44.28;99870.25;2080430;28;19921;-47
2022/04/05 03:06:25;;;;;;;;;;;;;;;18.48;44.23;99878.44;2080806;28;20257;-46
2022/04/05 03:07:25;;;;;;;;;;;;;;;18.48;44.22;99872.97;2082203;28;20120;-49
2022/04/05 03:08:26;;;;;;;;;;;;;;;18.48;44.45;99875.72;2078107;28;19931;-46
2022/04/05 03:09:26;;;;;;;;;;;;;;;18.47;44.28;99877.59;2082787;28;19920;-46
2022/04/05 03:10:29;;;;;;;;;;;;;;;18.47;44.46;99877.59;2081430;28;19925;-47
2022/04/05 03:11:29;;;;;;;;;;;;;;;18.47;44.43;99873.97;2082773;28;19924;-46
2022/04/05 03:12:30;;;;;;;;;;;;;;;18.46;44.46;99880.44;2079080;28;20008;-46
2022/04/05 03:13:31;;;;;;;;;;;;;;;18.46;44.47;99873.13;2077255;28;19921;-45
2022/04/05 03:14:31;;;;;;;;;;;;;;;18.46;44.34;99875.00;2079894;28;19924;-46
2022/04/05 03:15:32;;;;;;;;;;;;;;;18.46;44.36;99875.00;2083170;28;19924;-46
2022/04/05 03:16:37;;;;;;;;;;;;;;;18.45;44.46;99868.69;2083588;28;19927;-45
2022/04/05 03:17:41;;;;;;;;;;;;;;;18.45;44.22;99878.72;2083557;28;20204;-47
2022/04/05 03:18:45;;;;;;;;;;;;;;;18.43;44.33;99876.16;2084955;28;20464;-46
2022/04/05 03:19:46;;;;;;;;;;;;;;;18.43;44.29;99877.00;2079099;28;19921;-47
2022/04/05 03:20:46;;;;;;;;;;;;;;;18.43;44.35;99870.69;2083837;28;19923;-45
2022/04/05 03:21:47;;;;;;;;;;;;;;;18.42;44.33;99869.84;2083651;28;20272;-47
2022/04/05 03:22:47;;;;;;;;;;;;;;;18.43;44.25;99870.69;2081036;28;19919;-45
2022/04/05 03:23:47;;;;;;;;;;;;;;;18.42;44.33;99869.84;2083643;28;19935;-46
2022/04/05 03:24:47;;;;;;;;;;;;;;;18.42;44.24;99874.41;2077874;28;19913;-46
2022/04/05 03:25:48;;;;;;;;;;;;;;;18.42;44.32;99869.84;2083065;28;19928;-46
2022/04/05 03:26:49;;;;;;;;;;;;;;;18.42;44.29;99864.38;2083284;28;20289;-46
2022/04/05 03:27:49;;;;;;;;;;;;;;;18.42;44.19;99869.84;2082319;28;20397;-46
2022/04/05 03:28:49;;;;;;;;;;;;;;;18.42;44.21;99863.50;2087515;28;19921;-47
2022/04/05 03:29:50;;;;;;;;;;;;;;;18.42;44.19;99867.13;2089014;28;19957;-46
2022/04/05 03:30:50;;;;;;;;;;;;;;;18.41;44.35;99861.78;2079849;28;19972;-46
2022/04/05 03:31:51;;;;;;;;;;;;;;;18.42;44.22;99869.84;2075955;28;19970;-45
2022/04/05 03:32:51;;;;;;;;;;;;;;;18.41;44.41;99861.78;2082187;28;19931;-45
2022/04/05 03:33:52;;;;;;;;;;;;;;;18.42;44.37;99863.50;2084196;28;19928;-45
2022/04/05 03:34:52;;;;;;;;;;;;;;;18.40;44.42;99863.66;2083823;28;19920;-45
2022/04/05 03:35:55;;;;;;;;;;;;;;;18.40;44.38;99860.94;2083735;28;20259;-46
2022/04/05 03:36:55;;;;;;;;;;;;;;;18.39;44.46;99870.13;2084555;28;19982;-45
2022/04/05 03:37:56;;;;;;;;;;;;;;;18.38;44.31;99860.22;2081362;28;19920;-45
2022/04/05 03:38:56;;;;;;;;;;;;;;;18.37;44.37;99861.25;2087263;28;19963;-46
2022/04/05 03:39:57;;;;;;;;;;;;;;;18.37;44.52;99861.25;2088309;28;19926;-45
2022/04/05 03:40:57;;;;;;;;;;;;;;;18.36;44.35;99864.13;2084497;28;19921;-46
2022/04/05 03:41:58;;;;;;;;;;;;;;;18.35;44.34;99862.41;2079150;28;20015;-45
2022/04/05 03:42:58;;;;;;;;;;;;;;;18.35;44.41;99862.41;2083776;28;20418;-45
2022/04/05 03:43:58;;;;;;;;;;;;;;;18.34;44.52;99861.53;2083012;28;19955;-45
2022/04/05 03:44:59;;;;;;;;;;;;;;;18.34;44.46;99855.22;2082386;28;19976;-45
2022/04/05 03:46:00;;;;;;;;;;;;;;;18.33;44.43;99854.38;2081633;28;19959;-47
2022/04/05 03:47:01;;;;;;;;;;;;;;;18.33;44.52;99859.81;2079689;28;19924;-48
2022/04/05 03:48:01;;;;;;;;;;;;;;;18.33;44.66;99864.44;2081409;28;20208;-45
2022/04/05 03:49:01;;;;;;;;;;;;;;;18.32;44.61;99862.69;2083459;28;20291;-45
2022/04/05 03:50:02;;;;;;;;;;;;;;;18.31;44.65;99864.56;2079774;28;20397;-46
2022/04/05 03:51:09;;;;;;;;;;;;;;;18.31;44.54;99871.91;2089792;28;20328;-46
2022/04/05 03:52:10;;;;;;;;;;;;;;;18.30;44.75;99860.13;2080535;28;20250;-45
2022/04/05 03:53:10;;;;;;;;;;;;;;;18.31;44.71;99869.16;2079275;28;19912;-46
2022/04/05 03:54:11;;;;;;;;;;;;;;;18.31;44.65;99871.91;2083699;28;19950;-47
2022/04/05 03:55:11;;;;;;;;;;;;;;;18.30;44.53;99871.03;2078992;28;20744;-46
2022/04/05 03:56:12;;;;;;;;;;;;;;;18.29;44.55;99869.31;2084938;28;19917;-46
2022/04/05 03:57:12;;;;;;;;;;;;;;;18.31;44.61;99872.75;2080527;28;19948;-46
2022/04/05 03:58:12;;;;;;;;;;;;;;;18.31;44.43;99866.44;2082736;28;20740;-46
2022/04/05 03:59:13;;;;;;;;;;;;;;;18.31;44.42;99866.44;2084402;28;19920;-48
2022/04/05 04:00:13;;;;;;;;;;;;;;;18.31;44.60;99872.75;2082521;28;19963;-45
2022/04/05 04:01:14;;;;;;;;;;;;;;;18.29;44.56;99863.84;2081824;28;20613;-46
2022/04/05 04:02:14;;;;;;;;;;;;;;;18.30;44.65;99871.03;2082611;28;19920;-46
2022/04/05 04:03:14;;;;;;;;;;;;;;;18.30;44.53;99868.31;2081702;28;21321;-48
2022/04/05 04:04:15;;;;;;;;;;;;;;;18.31;44.63;99866.44;2081935;28;20444;-47
2022/04/05 04:05:19;;;;;;;;;;;;;;;18.31;44.47;99871.91;2081340;28;19999;-47
2022/04/05 04:06:19;;;;;;;;;;;;;;;18.29;44.66;99869.31;2080028;28;20386;-48
2022/04/05 04:07:20;;;;;;;;;;;;;;;18.29;44.50;99869.31;2078744;28;19927;-46
2022/04/05 04:08:20;;;;;;;;;;;;;;;18.29;44.66;99869.31;2078480;28;19920;-45
2022/04/05 04:09:20;;;;;;;;;;;;;;;18.27;44.62;99871.31;2079752;28;19920;-46
2022/04/05 04:10:21;;;;;;;;;;;;;;;18.27;44.71;99865.88;2082485;28;20354;-45
2022/04/05 04:11:22;;;;;;;;;;;;;;;18.27;44.67;99867.75;2078644;28;19973;-49
2022/04/05 04:12:22;;;;;;;;;;;;;;;18.25;44.55;99876.09;2080605;28;20741;-47
2022/04/05 04:13:23;;;;;;;;;;;;;;;18.25;44.81;99873.38;2077891;28;19954;-46
2022/04/05 04:14:23;;;;;;;;;;;;;;;18.24;44.67;99865.31;2080860;28;20254;-45
2022/04/05 04:15:24;;;;;;;;;;;;;;;18.24;44.58;99870.78;2076389;28;19963;-45
2022/04/05 04:16:24;;;;;;;;;;;;;;;18.23;44.77;99869.94;2082926;28;19971;-45
2022/04/05 04:17:25;;;;;;;;;;;;;;;18.23;44.73;99869.94;2079898;28;19921;-47
2022/04/05 04:18:26;;;;;;;;;;;;;;;18.22;44.57;99873.66;2081852;28;20140;-45
2022/04/05 04:19:26;;;;;;;;;;;;;;;18.23;44.84;99869.94;2079040;28;20158;-45
2022/04/05 04:20:26;;;;;;;;;;;;;;;18.24;44.74;99865.31;2082717;28;20431;-45
2022/04/05 04:21:26;;;;;;;;;;;;;;;18.23;44.76;99871.78;2079579;28;19927;-45
2022/04/05 04:22:27;;;;;;;;;;;;;;;18.24;44.76;99870.78;2080487;28;20243;-45
2022/04/05 04:23:27;;;;;;;;;;;;;;;18.24;44.71;99870.78;2080445;28;20116;-45
2022/04/05 04:24:28;;;;;;;;;;;;;;;18.24;44.65;99866.19;2082177;28;20256;-45
2022/04/05 04:25:28;;;;;;;;;;;;;;;18.24;44.59;99874.34;2078290;28;19920;-45
2022/04/05 04:26:28;;;;;;;;;;;;;;;18.26;44.63;99868.75;2077997;28;19974;-45
2022/04/05 04:27:29;;;;;;;;;;;;;;;18.26;44.74;99874.22;2083808;28;19974;-46
2022/04/05 04:28:29;;;;;;;;;;;;;;;18.26;44.77;99869.63;2077113;28;20347;-46
2022/04/05 04:29:29;;;;;;;;;;;;;;;18.27;44.70;99871.31;2081392;28;19921;-49
2022/04/05 04:30:30;;;;;;;;;;;;;;;18.27;44.58;99865.88;2079934;28;20351;-45
2022/04/05 04:31:31;;;;;;;;;;;;;;;18.27;44.40;99875.94;2083680;28;19920;-46
2022/04/05 04:32:32;;;;;;;;;;;;;;;18.28;44.46;99873.06;2082833;28;19974;-46
2022/04/05 04:33:32;;;;;;;;;;;;;;;18.28;44.60;99873.06;2078099;28;19920;-46
2022/04/05 04:34:33;;;;;;;;;;;;;;;18.28;44.60;99867.59;2083151;28;19974;-46
2022/04/05 04:35:34;;;;;;;;;;;;;;;18.28;44.63;99869.47;2081384;28;20354;-45
2022/04/05 04:36:35;;;;;;;;;;;;;;;18.26;44.42;99875.06;2079987;28;19979;-46
2022/04/05 04:37:36;;;;;;;;;;;;;;;18.27;44.49;99865.88;2081214;28;19917;-46
2022/04/05 04:38:37;;;;;;;;;;;;;;;18.24;44.55;99866.19;2082583;28;19920;-46
2022/04/05 04:39:37;;;;;;;;;;;;;;;18.26;44.50;99869.63;2081248;28;19912;-45
2022/04/05 04:40:38;;;;;;;;;;;;;;;18.25;44.58;99878.81;2082218;28;19934;-46
2022/04/05 04:41:39;;;;;;;;;;;;;;;18.24;44.54;99877.09;2079066;28;20403;-45
2022/04/05 04:42:39;;;;;;;;;;;;;;;18.23;44.40;99869.03;2079509;28;19931;-46
2022/04/05 04:43:40;;;;;;;;;;;;;;;18.24;44.55;99871.63;2079878;28;19916;-47
2022/04/05 04:44:41;;;;;;;;;;;;;;;18.23;44.50;99863.59;2078522;28;20335;-47
2022/04/05 04:45:41;;;;;;;;;;;;;;;18.22;44.56;99868.19;2078477;28;20516;-45
2022/04/05 04:46:43;;;;;;;;;;;;;;;18.21;44.49;99861.88;2078341;28;19921;-47
2022/04/05 04:47:43;;;;;;;;;;;;;;;18.20;44.61;99867.47;2079099;28;19924;-46
2022/04/05 04:48:44;;;;;;;;;;;;;;;18.21;44.75;99861.88;2080404;28;19917;-48
2022/04/05 04:49:44;;;;;;;;;;;;;;;18.20;44.49;99859.28;2076539;28;19920;-46
2022/04/05 04:50:44;;;;;;;;;;;;;;;18.19;44.59;99857.59;2081471;28;19921;-46
2022/04/05 04:51:45;;;;;;;;;;;;;;;18.19;44.60;99860.31;2080973;28;20459;-47
2022/04/05 04:52:45;;;;;;;;;;;;;;;18.17;44.65;99848.69;2082581;28;19921;-49
2022/04/05 04:53:45;;;;;;;;;;;;;;;18.18;44.56;99853.16;2082786;28;19963;-49
2022/04/05 04:54:45;;;;;;;;;;;;;;;18.18;44.53;99855.88;2078947;28;19931;-47
2022/04/05 04:55:46;;;;;;;;;;;;;;;18.19;44.47;99857.59;2077981;28;20480;-46
2022/04/05 04:56:46;;;;;;;;;;;;;;;18.18;44.58;99855.88;2078942;28;19923;-49
2022/04/05 04:57:46;;;;;;;;;;;;;;;18.18;44.45;99855.88;2082567;28;20482;-47
2022/04/05 04:58:47;;;;;;;;;;;;;;;18.19;44.60;99857.59;2079102;28;19924;-48
2022/04/05 04:59:47;;;;;;;;;;;;;;;18.18;44.59;99850.41;2079812;28;19916;-45
2022/04/05 05:00:48;;;;;;;;;;;;;;;18.18;44.66;99855.88;2083581;28;20008;-47
2022/04/05 05:01:48;;;;;;;;;;;;;;;18.18;44.49;99861.34;2081118;28;19956;-46
2022/04/05 05:02:50;;;;;;;;;;;;;;;18.17;44.61;99860.44;2083325;28;20146;-47
2022/04/05 05:03:51;;;;;;;;;;;;;;;18.17;44.69;99859.59;2081587;28;19994;-45
2022/04/05 05:04:52;;;;;;;;;;;;;;;18.17;44.51;99854.13;2085618;28;19920;-46
2022/04/05 05:05:54;;;;;;;;;;;;;;;18.15;44.66;99850.69;2078777;28;20382;-46
2022/04/05 05:06:54;;;;;;;;;;;;;;;18.16;44.60;99852.44;2083244;28;19939;-47
2022/04/05 05:07:54;;;;;;;;;;;;;;;18.15;44.63;99845.25;2083064;28;19917;-45
2022/04/05 05:08:55;;;;;;;;;;;;;;;18.15;44.73;99853.44;2077259;28;19965;-46
2022/04/05 05:09:55;;;;;;;;;;;;;;;18.14;44.61;99843.53;2082467;28;19916;-46
2022/04/05 05:10:56;;;;;;;;;;;;;;;18.14;44.66;99857.19;2084228;28;19916;-45
2022/04/05 05:11:56;;;;;;;;;;;;;;;18.13;44.70;99852.75;2083391;28;19917;-47
2022/04/05 05:12:56;;;;;;;;;;;;;;;18.12;44.62;99854.59;2082100;28;19935;-45
2022/04/05 05:13:56;;;;;;;;;;;;;;;18.12;44.66;99853.72;2083841;28;20216;-45
2022/04/05 05:14:58;;;;;;;;;;;;;;;18.13;44.71;99858.19;2080219;28;20535;-45
2022/04/05 05:15:58;;;;;;;;;;;;;;;18.15;44.49;99861.59;2077464;28;19932;-48